createdAt,value
2018-02-09T00:02:59.177Z,86.54
2018-02-09T00:09:03.662Z,86.74
2018-02-09T00:15:08.473Z,86.77
2018-02-09T00:21:13.722Z,86.63
2018-02-09T00:27:18.231Z,87.37
2018-02-09T00:33:23.053Z,86.88
2018-02-09T00:39:27.550Z,87.17
2018-02-09T00:45:32.104Z,86.99
2018-02-09T00:51:36.677Z,87.10
2018-02-09T00:57:41.179Z,86.80
2018-02-09T01:03:45.675Z,87.20
2018-02-09T01:09:50.204Z,87.90
2018-02-09T01:15:55.114Z,87.46
2018-02-09T01:21:59.614Z,86.50
2018-02-09T01:28:04.119Z,86.46
2018-02-09T01:34:08.728Z,86.92
2018-02-09T01:40:13.572Z,86.62
2018-02-09T01:46:18.090Z,86.93
2018-02-09T01:52:22.836Z,87.20
2018-02-09T01:58:27.343Z,87.24
2018-02-09T02:04:32.638Z,87.90
2018-02-09T02:10:37.958Z,87.67
2018-02-09T02:16:42.445Z,87.73
2018-02-09T02:22:47.155Z,87.88
2018-02-09T02:28:53.181Z,87.51
2018-02-09T02:34:57.709Z,87.84
2018-02-09T02:41:02.199Z,88.00
2018-02-09T02:47:06.666Z,88.12
2018-02-09T02:53:11.300Z,88.17
2018-02-09T02:59:15.808Z,87.90
2018-02-09T03:05:20.888Z,88.61
2018-02-09T03:11:26.517Z,88.57
2018-02-09T03:17:31.120Z,88.52
2018-02-09T03:23:35.683Z,87.93
2018-02-09T03:29:40.172Z,87.58
2018-02-09T03:35:44.649Z,87.26
2018-02-09T03:41:49.211Z,87.24
2018-02-09T03:47:53.988Z,87.53
2018-02-09T03:53:58.636Z,87.70
2018-02-09T04:00:03.260Z,87.69
2018-02-09T04:06:07.834Z,87.74
2018-02-09T04:12:12.318Z,87.37
2018-02-09T04:18:16.978Z,87.44
2018-02-09T04:24:22.358Z,87.09
2018-02-09T04:30:26.948Z,87.66
2018-02-09T04:36:32.291Z,88.34
2018-02-09T04:42:36.913Z,88.71
2018-02-09T04:48:41.551Z,88.26
2018-02-09T04:54:46.420Z,88.02
2018-02-09T05:00:51.743Z,88.63
2018-02-09T05:06:56.383Z,87.66
2018-02-09T05:13:01.003Z,88.44
2018-02-09T05:19:05.838Z,88.29
2018-02-09T05:25:10.591Z,88.83
2018-02-09T05:31:15.851Z,88.53
2018-02-09T05:37:20.633Z,88.58
2018-02-09T05:43:25.274Z,89.05
2018-02-09T05:49:29.943Z,88.36
2018-02-09T05:55:35.263Z,88.85
2018-02-09T06:01:39.956Z,88.07
2018-02-09T06:07:44.588Z,88.34
2018-02-09T06:13:49.110Z,88.64
2018-02-09T06:19:54.143Z,88.63
2018-02-09T06:25:58.770Z,89.52
2018-02-09T06:32:03.429Z,88.72
2018-02-09T06:38:08.685Z,88.93
2018-02-09T06:44:13.173Z,89.31
2018-02-09T06:50:17.768Z,89.81
2018-02-09T06:56:22.858Z,90.22
2018-02-09T07:02:27.754Z,89.45
2018-02-09T07:08:32.237Z,89.38
2018-02-09T07:14:36.893Z,89.23
2018-02-09T07:20:41.482Z,88.65
2018-02-09T07:26:47.739Z,88.98
2018-02-09T07:32:53.020Z,88.91
2018-02-09T07:38:57.574Z,88.91
2018-02-09T07:45:03.940Z,88.87
2018-02-09T07:51:08.468Z,88.36
2018-02-09T07:57:12.948Z,88.46
2018-02-09T08:03:18.248Z,88.11
2018-02-09T08:09:23.069Z,87.90
2018-02-09T08:15:27.649Z,87.33
2018-02-09T08:21:32.904Z,87.60
2018-02-09T08:27:37.414Z,87.06
2018-02-09T08:33:42.688Z,86.46
2018-02-09T08:39:47.178Z,86.11
2018-02-09T08:45:53.092Z,85.42
2018-02-09T08:51:58.338Z,85.93
2018-02-09T08:58:03.005Z,84.70
2018-02-09T09:04:07.530Z,82.78
2018-02-09T09:10:12.829Z,82.22
2018-02-09T09:16:18.147Z,82.54
2018-02-09T09:22:22.826Z,81.88
2018-02-09T09:28:27.445Z,81.46
2018-02-09T09:34:32.768Z,81.78
2018-02-09T09:40:38.046Z,80.59
2018-02-09T09:46:42.551Z,81.60
2018-02-09T09:52:47.068Z,80.94
2018-02-09T09:58:51.605Z,80.04
2018-02-09T10:04:56.206Z,80.90
2018-02-09T10:11:01.509Z,80.82
2018-02-09T10:17:06.766Z,81.27
2018-02-09T10:23:11.275Z,79.75
2018-02-09T10:29:15.781Z,79.70
2018-02-09T10:35:21.074Z,80.41
2018-02-09T10:41:25.757Z,80.84
2018-02-09T10:47:30.397Z,80.08
2018-02-09T10:53:35.008Z,79.93
2018-02-09T10:59:39.633Z,80.33
2018-02-09T11:05:44.287Z,80.00
2018-02-09T11:11:48.924Z,79.27
2018-02-09T11:17:53.945Z,78.08
2018-02-09T11:23:58.528Z,77.08
2018-02-09T11:30:03.094Z,76.45
2018-02-09T11:36:07.613Z,76.27
2018-02-09T11:42:12.304Z,75.03
2018-02-09T11:48:16.803Z,75.37
2018-02-09T11:54:21.587Z,75.00
2018-02-09T12:00:26.274Z,75.11
2018-02-09T12:06:30.749Z,76.02
2018-02-09T12:12:35.266Z,75.52
2018-02-09T12:18:40.032Z,75.74
2018-02-09T12:24:45.413Z,75.47
2018-02-09T12:30:50.635Z,75.57
2018-02-09T12:36:56.240Z,75.07
2018-02-09T12:43:00.964Z,76.14
2018-02-09T12:49:05.448Z,76.65
2018-02-09T12:55:09.938Z,76.85
2018-02-09T13:01:14.579Z,76.63
2018-02-09T13:07:19.443Z,76.92
2018-02-09T13:13:24.288Z,76.80
2018-02-09T13:19:28.970Z,76.10
2018-02-09T13:25:33.490Z,76.40
2018-02-09T13:31:39.570Z,76.49
2018-02-09T13:37:44.079Z,76.37
2018-02-09T13:43:48.553Z,76.44
2018-02-09T13:49:53.264Z,75.67
2018-02-09T13:55:57.893Z,75.10
2018-02-09T14:02:02.528Z,75.42
2018-02-09T14:08:07.056Z,72.83
2018-02-09T14:14:11.529Z,72.03
2018-02-09T14:20:16.129Z,72.14
2018-02-09T14:26:21.405Z,72.02
2018-02-09T14:32:25.977Z,72.54
2018-02-09T14:38:30.450Z,72.42
2018-02-09T14:44:34.932Z,72.43
2018-02-09T14:50:39.435Z,71.47
2018-02-09T14:56:44.662Z,72.45
2018-02-09T15:02:49.472Z,73.51
2018-02-09T15:08:54.434Z,74.10
2018-02-09T15:14:58.895Z,74.47
2018-02-09T15:21:03.427Z,75.02
2018-02-09T15:27:07.931Z,74.85
2018-02-09T15:33:12.434Z,75.66
2018-02-09T15:39:16.916Z,76.36
2018-02-09T15:45:22.204Z,76.83
2018-02-09T15:51:28.274Z,77.10
2018-02-09T15:57:32.845Z,76.29
2018-02-09T16:03:37.585Z,76.79
2018-02-09T16:09:42.127Z,76.44
2018-02-09T16:15:46.621Z,77.78
2018-02-09T16:21:51.488Z,77.95
2018-02-09T16:27:56.057Z,78.65
2018-02-09T16:34:00.655Z,77.99
2018-02-09T16:40:05.129Z,78.36
2018-02-09T16:46:09.834Z,78.88
2018-02-09T16:52:15.243Z,79.57
2018-02-09T16:58:20.112Z,79.52
2018-02-09T17:04:24.982Z,78.96
2018-02-09T17:10:29.479Z,78.88
2018-02-09T17:16:34.705Z,79.20
2018-02-09T17:22:39.171Z,79.30
2018-02-09T17:28:43.650Z,80.41
2018-02-09T17:34:48.122Z,80.88
2018-02-09T17:40:53.191Z,80.68
2018-02-09T17:46:58.426Z,80.75
2018-02-09T17:53:02.899Z,80.83
2018-02-09T17:59:07.371Z,81.27
2018-02-09T18:05:11.900Z,81.41
2018-02-09T18:11:16.510Z,81.76
2018-02-09T18:17:21.952Z,81.69
2018-02-09T18:23:27.264Z,82.18
2018-02-09T18:29:31.757Z,81.98
2018-02-09T18:35:37.093Z,82.53
2018-02-09T18:41:41.600Z,83.46
2018-02-09T18:47:46.295Z,83.90
2018-02-09T18:53:50.979Z,84.02
2018-02-09T18:59:55.575Z,83.86
2018-02-09T19:06:00.088Z,84.68
2018-02-09T19:12:04.655Z,84.82
2018-02-09T19:18:10.014Z,84.84
2018-02-09T19:24:14.613Z,85.44
2018-02-09T19:30:20.144Z,85.36
2018-02-09T19:36:24.869Z,85.21
2018-02-09T19:42:29.351Z,85.42
2018-02-09T19:48:33.998Z,85.56
2018-02-09T19:54:38.623Z,85.81
2018-02-09T20:00:43.274Z,86.35
2018-02-09T20:06:48.136Z,85.86
2018-02-09T20:12:53.033Z,86.76
2018-02-09T20:18:57.573Z,86.47
2018-02-09T20:25:02.854Z,87.06
2018-02-09T20:31:08.830Z,87.15
2018-02-09T20:37:13.317Z,87.64
2018-02-09T20:43:17.886Z,87.64
2018-02-09T20:49:22.843Z,87.99
2018-02-09T20:55:27.631Z,88.02
2018-02-09T21:01:32.927Z,88.72
2018-02-09T21:07:37.519Z,88.75
2018-02-09T21:13:42.000Z,88.92
2018-02-09T21:19:46.562Z,89.34
2018-02-09T21:25:51.090Z,89.51
2018-02-09T21:31:55.756Z,89.58
2018-02-09T21:38:00.419Z,89.58
2018-02-09T21:44:04.998Z,89.20
2018-02-09T21:50:09.549Z,89.19
2018-02-09T21:56:14.780Z,89.17
2018-02-09T22:02:19.793Z,88.85
2018-02-09T22:08:24.606Z,88.75
2018-02-09T22:14:29.917Z,88.80
2018-02-09T22:20:35.158Z,90.21
2018-02-09T22:26:39.718Z,88.88
2018-02-09T22:32:44.302Z,89.10
2018-02-09T22:38:48.950Z,89.02
2018-02-09T22:44:54.215Z,88.80
2018-02-09T22:50:58.730Z,88.94
2018-02-09T22:57:03.559Z,88.72
2018-02-09T23:03:08.166Z,88.45
2018-02-09T23:09:12.695Z,88.37
2018-02-09T23:15:17.160Z,88.23
2018-02-09T23:21:22.539Z,87.84
2018-02-09T23:27:28.011Z,87.54
2018-02-09T23:33:32.667Z,87.79
2018-02-09T23:39:37.275Z,88.21
2018-02-09T23:45:41.764Z,88.17
2018-02-09T23:51:46.408Z,88.34
2018-02-09T23:57:51.654Z,87.67
